Time;durP1;ratioP1;P1;durP2;ratioP2;P2;SDS_P1;SDS_P2;PMS_P1;PMS_P2;Temp;Humidity;BMP_temperature;BMP_pressure;BME280_temperature;BME280_humidity;BME280_pressure;Samples;Min_cycle;Max_cycle;Signal;HPM_P1;HPM_P2
2023/05/04 00:00:58;;;;;;;11.23;8.32;;;;;;;9.07;64.59;102052.81;4877032;28;20057;-71
2023/05/04 00:03:24;;;;;;;11.38;8.10;;;;;;;9.02;64.69;102048.53;4869018;28;20049;-72
2023/05/04 00:05:50;;;;;;;9.48;8.05;;;;;;;9.03;64.89;102044.94;4871370;28;20025;-72
2023/05/04 00:08:15;;;;;;;10.55;8.25;;;;;;;8.98;65.23;102045.06;4936172;28;20413;-71
2023/05/04 00:10:41;;;;;;;10.70;8.25;;;;;;;8.95;65.71;102040.72;4867720;28;20056;-72
2023/05/04 00:13:06;;;;;;;9.15;8.20;;;;;;;8.93;65.69;102041.66;4872298;28;20717;-73
2023/05/04 00:15:31;;;;;;;9.18;8.27;;;;;;;8.92;65.38;102031.94;4872972;28;20496;-72
2023/05/04 00:17:57;;;;;;;10.65;8.05;;;;;;;8.92;65.74;102038.13;4918488;28;20122;-72
2023/05/04 00:20:22;;;;;;;8.85;7.60;;;;;;;8.97;65.57;102038.00;4892011;28;20026;-73
2023/05/04 00:22:47;;;;;;;10.10;8.30;;;;;;;8.92;65.94;102027.50;4921850;28;20031;-73
2023/05/04 00:25:13;;;;;;;8.90;8.00;;;;;;;8.82;65.96;102025.09;4868031;28;20040;-73
2023/05/04 00:27:38;;;;;;;10.77;8.52;;;;;;;8.86;66.04;102027.69;4954289;28;20438;-73
2023/05/04 00:30:04;;;;;;;9.95;7.45;;;;;;;8.79;66.16;102026.06;4869029;29;20073;-73
2023/05/04 00:32:29;;;;;;;10.15;8.18;;;;;;;8.76;66.39;102007.56;4869123;29;20481;-73
2023/05/04 00:34:55;;;;;;;11.07;7.97;;;;;;;8.75;66.93;102010.25;4869621;29;20032;-73
2023/05/04 00:37:20;;;;;;;10.27;7.60;;;;;;;8.68;66.65;102005.09;4874719;28;20029;-73
2023/05/04 00:39:46;;;;;;;11.02;7.50;;;;;;;8.65;66.71;101999.88;4867781;29;20029;-72
2023/05/04 00:42:11;;;;;;;9.50;7.53;;;;;;;8.69;66.56;102003.31;4928469;28;20080;-72
2023/05/04 00:44:40;;;;;;;9.10;7.30;;;;;;;8.69;66.50;102000.66;4886350;28;20029;-71
2023/05/04 00:47:06;;;;;;;10.02;7.53;;;;;;;8.71;66.71;101996.19;4894924;28;20036;-72
2023/05/04 00:49:31;;;;;;;9.38;6.97;;;;;;;8.63;66.80;101987.53;4885162;29;20049;-73
2023/05/04 00:51:57;;;;;;;10.27;7.07;;;;;;;8.67;66.83;101997.19;4886110;28;20033;-72
2023/05/04 00:54:28;;;;;;;9.52;7.45;;;;;;;8.66;66.77;101995.44;4909576;28;20018;-73
2023/05/04 00:56:55;;;;;;;8.85;7.93;;;;;;;8.58;66.93;101997.41;4904719;28;20036;-73
2023/05/04 00:59:20;;;;;;;8.27;7.45;;;;;;;8.58;67.09;101990.31;4881220;28;20036;-73
2023/05/04 01:01:46;;;;;;;8.27;7.43;;;;;;;8.53;67.01;101988.66;4877255;29;20076;-74
2023/05/04 01:04:13;;;;;;;11.60;7.88;;;;;;;8.49;67.24;101987.88;4905314;28;20033;-73
2023/05/04 01:06:53;;;;;;;8.43;7.30;;;;;;;8.47;67.37;101982.59;4875667;28;20124;-71
2023/05/04 01:09:25;;;;;;;9.27;7.82;;;;;;;8.47;67.64;101982.59;4861900;28;20029;-72
2023/05/04 01:12:03;;;;;;;8.95;7.63;;;;;;;8.46;67.64;101994.13;4877311;28;20129;-72
2023/05/04 01:14:29;;;;;;;9.80;8.15;;;;;;;8.41;68.09;101982.75;4888732;28;20059;-73
2023/05/04 01:16:59;;;;;;;10.70;7.60;;;;;;;8.35;68.08;101985.50;4899596;28;20065;-72
2023/05/04 01:19:28;;;;;;;8.82;7.57;;;;;;;8.35;68.22;101984.63;4882077;28;20253;-72
2023/05/04 01:21:53;;;;;;;9.13;7.65;;;;;;;8.27;68.64;101971.53;4878803;28;20474;-72
2023/05/04 01:24:19;;;;;;;9.15;8.07;;;;;;;8.31;68.71;101969.69;4870932;29;20029;-72
2023/05/04 01:26:47;;;;;;;10.52;7.75;;;;;;;8.25;68.90;101970.72;4871432;28;20523;-73
2023/05/04 01:29:25;;;;;;;9.88;7.53;;;;;;;8.22;69.08;101969.00;4869185;28;20544;-73
2023/05/04 01:31:52;;;;;;;12.23;7.53;;;;;;;8.18;69.24;101969.13;4879545;28;20112;-71
2023/05/04 01:34:18;;;;;;;12.98;7.85;;;;;;;8.16;69.19;101963.84;4870326;28;20116;-71
2023/05/04 01:36:44;;;;;;;9.20;7.68;;;;;;;8.09;69.78;101964.91;4870390;28;20028;-72
2023/05/04 01:39:10;;;;;;;8.73;7.38;;;;;;;8.08;69.95;101970.25;4872500;28;20040;-72
2023/05/04 01:41:35;;;;;;;11.48;8.48;;;;;;;8.07;69.99;101965.81;4876168;28;20029;-72
2023/05/04 01:44:02;;;;;;;8.77;7.43;;;;;;;8.06;70.47;101974.69;4891263;28;20033;-71
2023/05/04 01:46:27;;;;;;;10.65;7.85;;;;;;;7.98;70.22;101962.50;4869874;28;20021;-71
2023/05/04 01:48:53;;;;;;;9.00;7.72;;;;;;;7.98;70.53;101962.50;4879934;28;20507;-71
2023/05/04 01:51:18;;;;;;;8.75;7.88;;;;;;;7.99;70.70;101963.38;4870732;28;20025;-72
2023/05/04 01:53:44;;;;;;;11.38;7.65;;;;;;;7.97;70.75;101960.72;4871758;28;20037;-72
2023/05/04 01:56:09;;;;;;;10.82;8.02;;;;;;;7.94;70.99;101962.56;4900861;28;20036;-72
2023/05/04 01:58:34;;;;;;;8.48;7.38;;;;;;;7.91;70.95;101960.88;4892629;28;20029;-72
2023/05/04 02:01:00;;;;;;;9.57;7.40;;;;;;;7.88;71.33;101963.59;4919051;28;20052;-72
2023/05/04 02:03:30;;;;;;;9.02;8.10;;;;;;;7.91;71.34;101962.66;4871760;28;20048;-72
2023/05/04 02:05:56;;;;;;;9.23;8.00;;;;;;;7.82;71.79;101961.09;4869654;28;20033;-71
2023/05/04 02:08:21;;;;;;;11.38;7.68;;;;;;;7.82;71.67;101966.38;4879567;28;20033;-71
2023/05/04 02:10:47;;;;;;;11.00;8.07;;;;;;;7.80;72.07;101959.38;4906562;28;20040;-72
2023/05/04 02:13:13;;;;;;;9.95;8.10;;;;;;;7.78;72.07;101955.88;4893167;28;20111;-71
2023/05/04 02:15:38;;;;;;;10.00;7.85;;;;;;;7.78;72.08;101956.75;4872861;28;20060;-71
2023/05/04 02:18:04;;;;;;;10.98;8.32;;;;;;;7.79;72.64;101962.94;4901241;28;20105;-72
2023/05/04 02:20:29;;;;;;;10.43;7.95;;;;;;;7.78;72.70;101962.06;4904101;28;20029;-72
2023/05/04 02:22:54;;;;;;;9.10;7.72;;;;;;;7.72;72.80;101960.38;4876552;28;20465;-72
2023/05/04 02:25:20;;;;;;;12.63;8.70;;;;;;;7.73;73.26;101958.59;4919520;28;20042;-72
2023/05/04 02:27:45;;;;;;;8.27;7.47;;;;;;;7.68;73.24;101956.06;4882867;28;20032;-72
2023/05/04 02:30:11;;;;;;;8.73;7.78;;;;;;;7.70;73.16;101948.09;4871609;28;20047;-73
2023/05/04 02:32:37;;;;;;;10.73;8.10;;;;;;;7.66;73.51;101942.00;4919142;28;20035;-73
2023/05/04 02:35:02;;;;;;;9.25;7.78;;;;;;;7.68;73.44;101944.59;4933875;28;20112;-73
2023/05/04 02:37:27;;;;;;;9.88;8.75;;;;;;;7.66;73.52;101935.81;4904989;28;20053;-72
2023/05/04 02:39:53;;;;;;;10.45;8.30;;;;;;;7.62;73.82;101942.09;4897134;28;20027;-72
2023/05/04 02:42:18;;;;;;;10.80;8.13;;;;;;;7.58;73.53;101933.31;4911534;28;20433;-72
2023/05/04 02:44:43;;;;;;;9.80;7.68;;;;;;;7.59;73.99;101939.50;4892627;28;20033;-73
2023/05/04 02:47:09;;;;;;;9.43;8.43;;;;;;;7.53;74.13;101942.28;4896174;28;20275;-72
2023/05/04 02:49:34;;;;;;;10.07;8.60;;;;;;;7.47;74.20;101946.78;4891205;28;20124;-73
2023/05/04 02:52:00;;;;;;;10.05;7.68;;;;;;;7.49;74.30;101945.00;4910319;28;20032;-74
2023/05/04 02:54:25;;;;;;;11.27;8.18;;;;;;;7.40;74.67;101944.31;4871940;28;20373;-72
2023/05/04 02:56:50;;;;;;;9.77;8.18;;;;;;;7.32;75.20;101955.06;4933420;28;20231;-73
2023/05/04 02:59:16;;;;;;;9.15;8.25;;;;;;;7.30;75.21;101942.72;4873072;28;20037;-72
2023/05/04 03:01:41;;;;;;;9.07;7.80;;;;;;;7.31;75.39;101944.47;4886399;28;20112;-71
2023/05/04 03:04:06;;;;;;;9.82;8.57;;;;;;;7.22;75.70;101942.88;4924720;28;20111;-72
2023/05/04 03:06:32;;;;;;;9.40;8.20;;;;;;;7.26;75.33;101949.84;4889915;28;20048;-72
2023/05/04 03:08:58;;;;;;;9.15;7.90;;;;;;;7.15;76.07;101949.22;4879115;28;20029;-72
2023/05/04 03:11:23;;;;;;;10.75;8.82;;;;;;;7.11;76.23;101945.75;4909031;28;20060;-72
2023/05/04 03:13:49;;;;;;;10.95;8.60;;;;;;;7.14;76.26;101945.66;4884978;28;20025;-71
2023/05/04 03:16:15;;;;;;;10.73;8.65;;;;;;;7.12;76.55;101938.69;4930389;28;20097;-72
2023/05/04 03:18:41;;;;;;;9.35;8.45;;;;;;;7.02;76.86;101942.38;4874347;28;20035;-72
2023/05/04 03:21:06;;;;;;;9.43;8.48;;;;;;;6.98;77.28;101934.53;4916709;28;20068;-72
2023/05/04 03:23:31;;;;;;;10.95;8.98;;;;;;;6.95;77.25;101931.06;4906381;28;20486;-72
2023/05/04 03:25:57;;;;;;;11.95;9.57;;;;;;;6.90;77.63;101932.91;4927977;28;20031;-71
2023/05/04 03:28:22;;;;;;;9.55;8.55;;;;;;;6.82;77.91;101930.41;4881089;28;20495;-72
2023/05/04 03:30:47;;;;;;;12.88;8.80;;;;;;;6.85;77.99;101929.44;4872301;28;20493;-72
2023/05/04 03:33:13;;;;;;;10.52;8.68;;;;;;;6.90;78.11;101938.22;4889004;28;20441;-72
2023/05/04 03:35:38;;;;;;;10.20;8.85;;;;;;;6.89;78.05;101921.44;4912461;28;20414;-72
2023/05/04 03:38:05;;;;;;;11.73;8.75;;;;;;;6.84;78.30;101918.00;4907273;28;20042;-72
2023/05/04 03:40:31;;;;;;;12.25;8.98;;;;;;;6.79;78.61;101919.88;4904825;28;20035;-72
2023/05/04 03:42:57;;;;;;;17.40;9.23;;;;;;;6.76;78.85;101914.63;4887367;28;20428;-73
2023/05/04 03:45:22;;;;;;;10.23;8.68;;;;;;;6.72;79.22;101912.94;4878990;28;20043;-72
2023/05/04 03:47:48;;;;;;;11.32;8.80;;;;;;;6.69;79.48;101908.59;4869033;28;20037;-73
2023/05/04 03:50:13;;;;;;;9.77;8.73;;;;;;;6.68;79.33;101912.09;4868653;28;20381;-71
2023/05/04 03:52:39;;;;;;;11.00;9.52;;;;;;;6.73;79.34;101912.91;4868715;28;20508;-73
2023/05/04 03:55:05;;;;;;;15.02;9.30;;;;;;;6.70;79.76;101906.81;4923034;28;20041;-73
2023/05/04 03:57:31;;;;;;;12.15;9.52;;;;;;;6.64;79.88;101905.13;4893413;28;20077;-72
2023/05/04 03:59:56;;;;;;;13.95;9.35;;;;;;;6.68;80.03;101904.16;4921756;28;20455;-72
2023/05/04 04:02:22;;;;;;;10.18;8.85;;;;;;;6.59;80.28;101903.47;4872629;28;20041;-73
2023/05/04 04:04:47;;;;;;;13.07;9.27;;;;;;;6.66;80.33;101908.63;4868101;28;20448;-72
2023/05/04 04:07:12;;;;;;;10.30;9.00;;;;;;;6.62;80.38;101914.00;4878514;28;20036;-72
2023/05/04 04:09:38;;;;;;;11.35;9.30;;;;;;;6.57;80.50;101905.28;4869844;28;21513;-72
2023/05/04 04:12:03;;;;;;;10.23;9.23;;;;;;;6.66;80.24;101905.13;4887774;28;20029;-72
2023/05/04 04:14:28;;;;;;;11.32;8.95;;;;;;;6.64;80.06;101904.25;4927252;28;20115;-73
2023/05/04 04:16:54;;;;;;;12.15;9.13;;;;;;;6.65;80.43;101917.47;4872858;28;20083;-72
2023/05/04 04:19:19;;;;;;;10.43;9.23;;;;;;;6.65;80.52;101917.47;4888234;28;20084;-73
2023/05/04 04:21:44;;;;;;;12.70;9.38;;;;;;;6.63;80.57;101913.09;4863798;28;20037;-72
2023/05/04 04:24:10;;;;;;;13.80;9.25;;;;;;;6.68;80.47;101895.34;4862081;28;20247;-73
2023/05/04 04:26:35;;;;;;;11.93;8.93;;;;;;;6.73;80.51;101899.69;4900628;28;20035;-73
2023/05/04 04:29:01;;;;;;;12.07;9.50;;;;;;;6.67;80.98;101891.84;4870901;28;20033;-73
2023/05/04 04:31:27;;;;;;;11.35;8.88;;;;;;;6.73;80.65;101891.75;4870496;28;20033;-74
2023/05/04 04:33:52;;;;;;;12.10;8.98;;;;;;;6.67;80.97;101894.50;4867291;28;20540;-73
2023/05/04 04:36:18;;;;;;;12.07;9.60;;;;;;;6.69;80.86;101886.56;4869201;28;20032;-73
2023/05/04 04:38:44;;;;;;;10.65;9.00;;;;;;;6.70;81.04;101885.63;4863834;28;20028;-72
2023/05/04 04:41:10;;;;;;;13.65;9.77;;;;;;;6.74;80.98;101884.69;4871825;28;20040;-72
2023/05/04 04:43:35;;;;;;;12.55;9.35;;;;;;;6.81;81.00;101885.44;4874720;28;20030;-72
2023/05/04 04:46:02;;;;;;;11.85;9.73;;;;;;;6.86;81.01;101889.75;4897023;28;20033;-72
2023/05/04 04:48:28;;;;;;;10.20;9.20;;;;;;;6.83;80.78;101895.09;4871484;28;20045;-72
2023/05/04 04:50:53;;;;;;;10.63;9.50;;;;;;;6.87;81.09;101883.56;4867968;28;20037;-72
2023/05/04 04:53:18;;;;;;;13.15;9.55;;;;;;;6.90;80.84;101891.44;4873444;28;20129;-72
2023/05/04 04:55:44;;;;;;;10.55;9.00;;;;;;;7.01;80.71;101890.34;4876121;28;20029;-72
2023/05/04 04:58:10;;;;;;;11.10;9.13;;;;;;;7.05;80.45;101892.03;4898312;28;20031;-72
2023/05/04 05:00:36;;;;;;;11.45;9.43;;;;;;;7.06;80.20;101881.41;4893582;28;20049;-71
2023/05/04 05:03:02;;;;;;;13.38;9.65;;;;;;;7.15;80.11;101889.19;4875582;28;20040;-71
2023/05/04 05:05:28;;;;;;;11.38;9.45;;;;;;;7.15;79.75;101894.47;4902423;28;20037;-71
2023/05/04 05:07:53;;;;;;;11.68;9.50;;;;;;;7.23;79.77;101889.00;4946413;28;20044;-71
2023/05/04 05:10:20;;;;;;;13.90;9.90;;;;;;;7.23;79.48;101896.94;4869865;28;20807;-71
2023/05/04 05:12:46;;;;;;;13.65;9.75;;;;;;;7.33;79.49;101890.59;4881090;28;20255;-71
2023/05/04 05:15:11;;;;;;;12.25;9.80;;;;;;;7.37;79.68;101894.91;4882894;28;20037;-71
2023/05/04 05:17:37;;;;;;;11.88;9.77;;;;;;;7.48;79.17;101899.97;4907572;28;20652;-71
2023/05/04 05:20:07;;;;;;;14.32;8.85;;;;;;;7.57;78.77;101894.50;4940918;28;20035;-70
2023/05/04 05:22:32;;;;;;;11.52;8.95;;;;;;;7.60;78.97;101899.72;4885714;28;20087;-71
2023/05/04 05:24:57;;;;;;;10.27;8.68;;;;;;;7.65;79.07;101897.84;4892357;28;20027;-71
2023/05/04 05:27:23;;;;;;;15.23;9.45;;;;;;;7.68;78.44;101894.25;4898228;28;20033;-71
2023/05/04 05:29:48;;;;;;;12.70;9.60;;;;;;;7.72;78.48;101893.28;4869189;28;20025;-71
2023/05/04 05:32:13;;;;;;;15.00;9.98;;;;;;;7.86;78.09;101907.09;4874174;28;20071;-71
2023/05/04 05:34:39;;;;;;;11.82;9.63;;;;;;;7.90;77.45;101890.22;4866102;28;20191;-71
2023/05/04 05:37:04;;;;;;;12.95;10.10;;;;;;;7.92;77.30;101896.34;4864355;28;20044;-71
2023/05/04 05:39:30;;;;;;;15.18;10.07;;;;;;;8.00;77.41;101898.81;4866532;29;20029;-71
2023/05/04 05:41:58;;;;;;;11.02;9.55;;;;;;;8.07;77.44;101900.44;4916348;28;20027;-69
2023/05/04 05:44:23;;;;;;;11.15;9.75;;;;;;;8.15;77.06;101897.56;4868618;28;20030;-70
2023/05/04 05:46:49;;;;;;;13.98;9.85;;;;;;;8.29;76.52;101891.97;4963107;28;20373;-72
2023/05/04 05:49:14;;;;;;;11.68;10.13;;;;;;;8.44;76.56;101892.50;4868156;28;20223;-71
2023/05/04 05:51:40;;;;;;;12.25;9.90;;;;;;;8.50;75.88;101885.28;4892076;28;20027;-71
2023/05/04 05:54:06;;;;;;;11.50;9.48;;;;;;;8.56;75.35;101885.09;4953378;28;20034;-72
2023/05/04 05:56:31;;;;;;;11.77;9.73;;;;;;;8.71;75.13;101897.97;4886709;28;20179;-71
2023/05/04 05:58:58;;;;;;;11.27;9.85;;;;;;;8.79;74.69;101890.69;4870933;28;20033;-71
2023/05/04 06:01:23;;;;;;;11.52;9.88;;;;;;;8.93;74.30;101893.84;4932348;28;20058;-71
2023/05/04 06:03:49;;;;;;;11.77;9.25;;;;;;;9.03;73.35;101889.16;4935124;28;20025;-72
2023/05/04 06:06:14;;;;;;;12.50;10.02;;;;;;;9.11;73.09;101884.50;4938496;28;20029;-71
2023/05/04 06:08:40;;;;;;;11.32;9.57;;;;;;;9.22;72.98;101876.22;4897101;28;20041;-71
2023/05/04 06:11:05;;;;;;;11.98;9.20;;;;;;;9.30;72.28;101882.19;4933977;28;20029;-72
2023/05/04 06:13:31;;;;;;;11.07;9.30;;;;;;;9.46;71.61;101875.50;4930253;28;20086;-72
2023/05/04 06:15:56;;;;;;;11.00;9.50;;;;;;;9.54;71.64;101871.75;4911160;28;20046;-71
2023/05/04 06:18:21;;;;;;;15.63;9.82;;;;;;;9.62;71.08;101872.41;4929509;28;20090;-72
2023/05/04 06:20:47;;;;;;;12.75;9.15;;;;;;;9.79;71.18;101871.88;4916230;28;20023;-71
2023/05/04 06:23:14;;;;;;;10.35;9.25;;;;;;;9.90;70.05;101862.63;4910379;28;20037;-71
2023/05/04 06:25:39;;;;;;;11.40;9.38;;;;;;;9.94;69.20;101860.72;4893050;28;20484;-71
2023/05/04 06:28:05;;;;;;;12.07;8.38;;;;;;;10.11;69.04;101855.72;4876312;28;20040;-72
2023/05/04 06:30:30;;;;;;;11.23;9.32;;;;;;;10.17;68.03;101850.22;4912181;28;20543;-73
2023/05/04 06:32:56;;;;;;;9.80;8.80;;;;;;;10.33;68.00;101832.00;4925875;28;20033;-72
2023/05/04 06:35:21;;;;;;;15.52;8.93;;;;;;;10.54;66.75;101842.81;4876846;28;20099;-72
2023/05/04 06:37:47;;;;;;;12.43;8.88;;;;;;;10.79;67.20;101843.69;4909844;28;20037;-72
2023/05/04 06:40:12;;;;;;;11.65;8.80;;;;;;;10.92;65.38;101837.00;4877483;28;20481;-72
2023/05/04 06:42:38;;;;;;;15.15;9.48;;;;;;;11.04;64.29;101843.69;4904077;28;20619;-72
2023/05/04 06:45:03;;;;;;;11.18;8.68;;;;;;;11.21;63.57;101840.38;4887993;28;21514;-72
2023/05/04 06:47:29;;;;;;;10.00;8.10;;;;;;;11.40;63.47;101844.06;4896334;28;20039;-71
2023/05/04 06:49:55;;;;;;;10.32;7.95;;;;;;;11.55;62.62;101836.44;4896510;28;20100;-71
2023/05/04 06:52:20;;;;;;;9.80;8.20;;;;;;;11.73;62.07;101833.03;4894982;28;20413;-71
2023/05/04 06:54:46;;;;;;;14.13;8.10;;;;;;;11.75;60.90;101841.84;4904604;28;20029;-72
2023/05/04 06:57:11;;;;;;;9.05;7.95;;;;;;;11.80;61.24;101836.31;4901683;28;20035;-72
2023/05/04 06:59:36;;;;;;;9.27;7.43;;;;;;;11.88;61.52;101829.78;4866559;28;20025;-72
2023/05/04 07:02:02;;;;;;;13.48;8.32;;;;;;;12.00;60.57;101831.09;4887696;28;20118;-72
2023/05/04 07:04:28;;;;;;;9.32;7.53;;;;;;;12.17;60.59;101822.38;4905778;28;20020;-73
2023/05/04 07:06:53;;;;;;;8.93;7.35;;;;;;;12.40;60.05;101822.25;4866116;28;20504;-73
2023/05/04 07:09:19;;;;;;;10.18;7.40;;;;;;;12.66;59.68;101822.91;4877055;28;20029;-73
2023/05/04 07:11:45;;;;;;;10.82;8.15;;;;;;;12.76;58.77;101824.28;4868452;29;20107;-72
2023/05/04 07:14:10;;;;;;;9.35;7.90;;;;;;;12.95;58.25;101821.63;4872343;28;20612;-72
2023/05/04 07:16:36;;;;;;;9.50;7.20;;;;;;;13.15;57.43;101813.56;4863791;28;20497;-71
2023/05/04 07:19:03;;;;;;;9.82;7.45;;;;;;;13.12;56.61;101812.84;4859448;28;20047;-72
2023/05/04 07:21:28;;;;;;;9.27;7.05;;;;;;;13.17;56.61;101810.84;4865926;28;20504;-71
2023/05/04 07:23:53;;;;;;;10.77;7.72;;;;;;;13.53;56.79;101802.03;4869033;28;20056;-71
2023/05/04 07:26:20;;;;;;;9.05;7.53;;;;;;;13.89;55.58;101800.25;4877634;28;20025;-72
2023/05/04 07:28:45;;;;;;;8.20;6.65;;;;;;;14.08;54.17;101799.31;4868850;29;20117;-73
2023/05/04 07:31:11;;;;;;;9.50;6.82;;;;;;;14.34;53.22;101806.06;4940402;28;20517;-72
2023/05/04 07:33:37;;;;;;;10.13;6.95;;;;;;;14.41;51.70;101791.38;4886721;28;20033;-72
2023/05/04 07:36:03;;;;;;;7.85;6.97;;;;;;;14.55;51.99;101806.78;4868358;28;20040;-72
2023/05/04 07:38:28;;;;;;;8.88;7.10;;;;;;;14.85;51.67;101802.47;4869597;29;20033;-72
2023/05/04 07:40:55;;;;;;;11.27;6.78;;;;;;;15.06;50.22;101794.22;4874499;28;20099;-72
2023/05/04 07:43:20;;;;;;;11.52;6.95;;;;;;;15.38;49.29;101795.13;4877155;29;20041;-72
2023/05/04 07:45:46;;;;;;;9.10;7.28;;;;;;;15.43;48.98;101795.75;4870427;28;20081;-72
2023/05/04 07:48:11;;;;;;;10.25;7.47;;;;;;;15.67;49.61;101797.09;4867927;28;20103;-72
2023/05/04 07:50:36;;;;;;;9.10;7.30;;;;;;;16.14;48.69;101780.03;4865575;28;20025;-72
2023/05/04 07:53:02;;;;;;;11.25;7.10;;;;;;;16.33;47.75;101793.19;4867967;28;20468;-72
2023/05/04 07:55:29;;;;;;;8.43;6.80;;;;;;;16.40;47.08;101783.81;4867058;28;20517;-73
2023/05/04 07:57:55;;;;;;;8.00;6.90;;;;;;;16.71;48.05;101795.38;4862535;28;20100;-73
2023/05/04 08:00:20;;;;;;;9.80;6.78;;;;;;;17.20;46.12;101786.97;4866545;28;20359;-72
2023/05/04 08:02:46;;;;;;;8.30;6.88;;;;;;;17.41;44.71;101784.72;4864678;28;20029;-72
2023/05/04 08:05:11;;;;;;;8.63;5.97;;;;;;;17.98;44.04;101779.22;4867729;28;20037;-72
2023/05/04 08:07:36;;;;;;;8.93;5.93;;;;;;;18.55;42.76;101780.69;4866343;28;20028;-72
2023/05/04 08:10:02;;;;;;;9.88;6.70;;;;;;;19.01;41.29;101786.44;4944417;28;20029;-73
2023/05/04 08:12:31;;;;;;;9.43;5.93;;;;;;;19.41;40.67;101776.31;4869064;28;20330;-72
2023/05/04 08:14:57;;;;;;;9.45;6.00;;;;;;;19.78;39.54;101778.19;4869869;28;20028;-73
2023/05/04 08:17:22;;;;;;;8.57;6.10;;;;;;;19.88;38.40;101765.69;4865926;28;20032;-71
2023/05/04 08:19:48;;;;;;;6.97;5.65;;;;;;;19.88;38.07;101780.06;4865836;28;20135;-72
2023/05/04 08:22:13;;;;;;;6.43;5.75;;;;;;;20.14;38.49;101766.41;4863017;28;20025;-72
2023/05/04 08:24:38;;;;;;;7.07;5.20;;;;;;;20.30;37.76;101771.50;4867014;28;20366;-71
2023/05/04 08:27:04;;;;;;;8.65;5.57;;;;;;;20.48;37.28;101772.78;4866689;28;20049;-71
2023/05/04 08:29:30;;;;;;;8.80;5.90;;;;;;;20.39;36.79;101760.81;4869707;28;20469;-71
2023/05/04 08:31:59;;;;;;;7.18;5.80;;;;;;;20.37;36.56;101762.81;4863650;28;20033;-71
2023/05/04 08:34:25;;;;;;;6.85;5.65;;;;;;;20.78;37.13;101761.44;4868615;28;20083;-71
2023/05/04 08:36:51;;;;;;;6.72;5.35;;;;;;;21.32;36.06;101760.72;4876784;28;20095;-71
2023/05/04 08:39:17;;;;;;;7.57;5.68;;;;;;;21.41;35.95;101750.09;4877707;28;20472;-72
2023/05/04 08:41:43;;;;;;;7.70;5.82;;;;;;;22.11;35.08;101753.19;4867610;28;20485;-73
2023/05/04 08:44:12;;;;;;;7.10;5.25;;;;;;;22.36;34.11;101749.25;4868618;29;20053;-72
2023/05/04 08:46:39;;;;;;;7.63;5.20;;;;;;;22.55;33.30;101744.94;4869093;28;20052;-73
2023/05/04 08:49:04;;;;;;;7.20;5.50;;;;;;;22.52;33.24;101739.78;4870115;29;20036;-73
2023/05/04 08:51:33;;;;;;;8.50;5.95;;;;;;;23.00;32.62;101741.91;4866320;28;20039;-71
2023/05/04 08:54:00;;;;;;;10.85;5.28;;;;;;;23.25;32.54;101726.97;4889225;28;20048;-70
2023/05/04 08:56:26;;;;;;;5.63;5.00;;;;;;;23.40;31.30;101719.28;4869291;28;20033;-72
2023/05/04 08:58:52;;;;;;;8.07;5.50;;;;;;;23.54;31.25;101718.88;4866528;29;20025;-73
2023/05/04 09:01:18;;;;;;;7.88;5.80;;;;;;;23.79;31.20;101717.50;4881312;28;20052;-72
2023/05/04 09:03:45;;;;;;;6.07;5.13;;;;;;;24.31;31.23;101716.16;4867465;29;20033;-73
2023/05/04 09:06:11;;;;;;;6.80;5.55;;;;;;;24.72;29.41;101711.34;4866871;28;20037;-73
2023/05/04 09:08:37;;;;;;;7.55;5.47;;;;;;;25.27;29.80;101702.34;4869787;28;20048;-73
2023/05/04 09:11:03;;;;;;;5.63;5.05;;;;;;;25.36;28.45;101695.13;4898266;28;20028;-73
2023/05/04 09:13:30;;;;;;;9.38;5.35;;;;;;;25.21;28.95;101709.28;4867361;28;20119;-73
2023/05/04 09:15:57;;;;;;;7.18;4.82;;;;;;;25.32;28.93;101700.88;4872183;28;20490;-72
2023/05/04 09:18:23;;;;;;;5.78;5.13;;;;;;;25.62;28.79;101695.22;4874324;28;20832;-73
2023/05/04 09:20:49;;;;;;;11.38;5.88;;;;;;;25.99;27.84;101704.09;4864503;29;20396;-74
2023/05/04 09:23:16;;;;;;;6.32;4.85;;;;;;;26.24;28.00;101690.66;4936818;28;20037;-72
2023/05/04 09:25:49;;;;;;;5.82;5.30;;;;;;;26.61;27.52;101703.19;4864700;29;20029;-72
2023/05/04 09:28:17;;;;;;;6.70;5.20;;;;;;;27.02;26.47;101702.38;4870290;28;20037;-73
2023/05/04 09:30:42;;;;;;;10.60;5.40;;;;;;;27.24;26.29;101703.66;4867601;28;20039;-73
2023/05/04 09:33:09;;;;;;;7.30;5.13;;;;;;;27.52;25.71;101685.13;4866110;29;20112;-74
2023/05/04 09:35:39;;;;;;;6.43;4.47;;;;;;;28.41;25.29;101693.53;4870122;29;20098;-72
2023/05/04 09:38:06;;;;;;;5.43;4.70;;;;;;;28.35;24.99;101699.69;4945946;28;20032;-72
2023/05/04 09:40:39;;;;;;;7.20;5.10;;;;;;;28.82;24.19;101686.03;4865428;29;20033;-74
2023/05/04 09:43:06;;;;;;;7.78;4.88;;;;;;;29.02;24.37;101687.34;4943483;28;20045;-75
2023/05/04 09:45:41;;;;;;;8.68;5.03;;;;;;;29.29;24.66;101682.41;4871450;28;20037;-75
2023/05/04 09:48:17;;;;;;;7.97;4.93;;;;;;;29.18;25.30;101674.59;4873645;28;20053;-74
2023/05/04 09:50:54;;;;;;;6.53;5.10;;;;;;;29.48;25.25;101678.34;4873257;28;20036;-74
2023/05/04 09:53:28;;;;;;;6.57;5.32;;;;;;;30.32;23.52;101673.72;4868927;29;20033;-75
2023/05/04 09:56:02;;;;;;;6.82;4.80;;;;;;;30.40;23.73;101670.91;4867747;28;20032;-73
2023/05/04 09:58:30;;;;;;;6.15;5.20;;;;;;;30.26;22.70;101672.56;4871717;28;20029;-75
2023/05/04 10:00:57;;;;;;;6.00;5.20;;;;;;;30.49;23.55;101669.75;4873113;29;20063;-75
2023/05/04 10:03:25;;;;;;;7.40;5.28;;;;;;;30.53;22.87;101662.00;4876167;28;20088;-75
2023/05/04 10:05:50;;;;;;;7.00;5.57;;;;;;;30.72;22.07;101655.94;4869968;28;20228;-73
2023/05/04 10:08:16;;;;;;;8.45;5.50;;;;;;;31.36;21.97;101654.44;4974469;28;20031;-74
2023/05/04 10:10:42;;;;;;;7.15;5.15;;;;;;;31.88;21.20;101642.25;4873373;28;20033;-75
2023/05/04 10:13:08;;;;;;;5.85;4.80;;;;;;;31.98;20.68;101642.75;4869350;29;20142;-74
2023/05/04 10:15:36;;;;;;;5.38;4.68;;;;;;;32.49;20.98;101648.00;4869103;28;20036;-74
2023/05/04 10:18:31;;;;;;;5.85;5.00;;;;;;;32.21;20.90;101640.59;4880210;28;20024;-73
2023/05/04 10:21:15;;;;;;;6.75;4.82;;;;;;;32.14;21.37;101628.66;4883001;28;20045;-73
2023/05/04 10:23:49;;;;;;;6.32;5.72;;;;;;;31.73;21.37;101634.06;4872754;29;20044;-73
2023/05/04 10:26:28;;;;;;;7.00;5.70;;;;;;;32.02;21.17;101626.66;4943418;28;20046;-73
2023/05/04 10:29:01;;;;;;;6.20;5.03;;;;;;;32.65;20.46;101622.88;4869909;29;20136;-74
2023/05/04 10:31:36;;;;;;;6.45;5.38;;;;;;;32.35;20.26;101615.88;4867752;29;20028;-76
2023/05/04 10:34:01;;;;;;;6.00;5.40;;;;;;;31.71;20.57;101603.09;4872223;29;20484;-73
2023/05/04 10:36:37;;;;;;;8.00;5.03;;;;;;;31.47;21.57;101596.13;4955229;28;20099;-75
2023/05/04 10:39:03;;;;;;;7.03;5.50;;;;;;;31.84;20.73;101597.72;4890741;28;20512;-73
2023/05/04 10:41:30;;;;;;;6.68;5.60;;;;;;;31.74;21.01;101595.31;4869917;28;20053;-75
2023/05/04 10:44:05;;;;;;;6.15;5.28;;;;;;;33.03;20.56;101591.22;4868423;29;20036;-74
2023/05/04 10:46:30;;;;;;;7.13;4.88;;;;;;;33.93;19.28;101573.22;4868736;28;20043;-73
2023/05/04 10:48:56;;;;;;;6.82;5.32;;;;;;;34.15;18.70;101580.25;4875991;28;20037;-74
2023/05/04 10:51:25;;;;;;;8.35;5.78;;;;;;;33.80;18.73;101559.44;4869064;28;20033;-77
2023/05/04 10:53:51;;;;;;;7.28;5.25;;;;;;;33.17;18.99;101562.59;4870714;29;20111;-74
2023/05/04 10:56:24;;;;;;;9.63;5.43;;;;;;;32.81;20.04;101560.13;4872845;28;20102;-74
2023/05/04 10:58:49;;;;;;;;;;;;;;;34.33;18.94;101542.78;4872637;28;20036;-72
2023/05/04 11:01:15;;;;;;;9.43;4.90;;;;;;;33.44;19.20;101535.84;4874081;29;19923;-72
2023/05/04 11:03:41;;;;;;;7.20;4.82;;;;;;;33.52;19.65;101532.06;4871230;28;20210;-73
2023/05/04 11:06:15;;;;;;;5.45;4.18;;;;;;;33.67;19.68;101535.47;4868382;28;20485;-72
2023/05/04 11:08:41;;;;;;;6.18;4.45;;;;;;;34.04;18.73;101522.06;4864218;28;20037;-74
2023/05/04 11:11:06;;;;;;;5.78;4.70;;;;;;;34.76;18.11;101520.06;4870790;29;20047;-73
2023/05/04 11:13:40;;;;;;;5.22;4.10;;;;;;;34.91;17.76;101520.63;4870692;28;20036;-73
2023/05/04 11:16:05;;;;;;;8.80;4.28;;;;;;;35.64;17.74;101522.84;4886193;28;20056;-74
2023/05/04 11:18:33;;;;;;;5.13;4.00;;;;;;;36.49;16.87;101514.66;4869656;28;20587;-73
2023/05/04 11:20:59;;;;;;;5.18;4.68;;;;;;;36.84;16.39;101517.59;4947798;28;20071;-72
2023/05/04 11:23:27;;;;;;;4.30;3.90;;;;;;;36.74;16.15;101533.09;4944884;28;20075;-72